Seikou Maru — JD4147 — position and weather

sailwx.info

Track history (hours):
 
Tides and Currents Weather Stations Pressure Air Temp Water Temp Dewpoint Dewpoint Depression Visibility Wind Speed Wind Dir Waves Ship Positions

Seikou Maru

Last reported at 2017-Dec-17 07:49 UTC. Time now 2017-Dec-17 17:39 UTC.
Position N 35°37' E 139°50'.

Length 45 m; draft 2.1 m.

Type: Cargo ship. MMSI: 431009274.

Date/timePositionNaut miles runAvg speedWind from/ knotsBaromVisibWave heightAir tempDewpointWater temp
2017-Dec-17 07:49N 35°37' E 139°50'1 2.8
2017-Dec-17 07:30N 35°36' E 139°50'1 2.6
2017-Dec-17 07:00N 35°35' E 139°50'0 0.0
2017-Dec-17 06:29N 35°35' E 139°50'0 0.0
2017-Dec-17 05:59N 35°35' E 139°50'0 0.0
2017-Dec-17 05:30N 35°35' E 139°50'0 0.0
2017-Dec-17 04:58N 35°35' E 139°50'0 0.0
2017-Dec-17 04:27N 35°35' E 139°50'2 4.3
2017-Dec-17 03:57N 35°37' E 139°50'0 0.0
2017-Dec-16 07:13N 35°37' E 139°50'1 5.0
2017-Dec-16 07:01N 35°36' E 139°50'1 2.1
2017-Dec-16 06:30N 35°35' E 139°50'0 0.0
2017-Dec-16 06:01N 35°35' E 139°50'0 0.0
2017-Dec-16 05:31N 35°35' E 139°50'0 0.0
2017-Dec-16 05:00N 35°35' E 139°50'0 0.0
2017-Dec-16 04:31N 35°35' E 139°50'2 3.1
2017-Dec-16 03:59N 35°37' E 139°50'1 0.2
2017-Dec-16 00:45N 35°37' E 139°50'0 0.1
2017-Dec-16 00:21N 35°37' E 139°50'  
2017-Dec-13 05:19N 35°37' E 139°50'1 3.1
2017-Dec-13 04:59N 35°36' E 139°50'510.4
2017-Dec-13 04:30N 35°31' E 139°52'5 9.4
2017-Dec-13 04:01N 35°27' E 139°50'510.3
2017-Dec-13 03:30N 35°23' E 139°46'5 9.9
2017-Dec-13 03:00N 35°18' E 139°45'510.2
2017-Dec-13 02:30N 35°13' E 139°47'510.4
2017-Dec-13 01:59N 35°08' E 139°47'510.1
2017-Dec-13 01:30N 35°03' E 139°46'1610.2
2017-Dec-12 23:55N 34°50' E 139°36'  
2017-Dec-10 03:56N 34°53' E 139°40'4 9.0
2017-Dec-10 03:29N 34°57' E 139°41'4 8.8
2017-Dec-10 03:00N 35°01' E 139°42'4 8.2
2017-Dec-10 02:30N 35°05' E 139°43'4 8.1
2017-Dec-10 02:00N 35°08' E 139°45'4 8.9
2017-Dec-10 01:30N 35°13' E 139°46'4 8.9
2017-Dec-10 01:01N 35°17' E 139°45'5 9.6
2017-Dec-10 00:31N 35°21' E 139°42'5 9.4
2017-Dec-10 00:01N 35°26' E 139°43'5 9.6
2017-Dec-09 23:30N 35°30' E 139°47'5 9.4
2017-Dec-09 23:01N 35°34' E 139°50'4 7.2
2017-Dec-09 22:30N 35°37' E 139°50'0 0.0
2017-Dec-09 22:01N 35°37' E 139°50'0 0.0
2017-Dec-08 22:53N 35°37' E 139°50'  
Track history (hours):
 
Tides and Currents Weather Stations Pressure Air Temp Water Temp Dewpoint Dewpoint Depression Visibility Wind Speed Wind Dir Waves Ship Positions

Seikou Maru

Last reported at 2017-Dec-17 07:49 UTC. Time now 2017-Dec-17 17:39 UTC.
Position N 35°37' E 139°50'.

Length 45 m; draft 2.1 m.

Type: Cargo ship. MMSI: 431009274.

Date/timePositionNaut miles runAvg speedWind from/ knotsBaromVisibWave heightAir tempDewpointWater temp
2017-Dec-17 07:49N 35°37' E 139°50'1 2.8
2017-Dec-17 07:30N 35°36' E 139°50'1 2.6
2017-Dec-17 07:00N 35°35' E 139°50'0 0.0
2017-Dec-17 06:29N 35°35' E 139°50'0 0.0
2017-Dec-17 05:59N 35°35' E 139°50'0 0.0
2017-Dec-17 05:30N 35°35' E 139°50'0 0.0
2017-Dec-17 04:58N 35°35' E 139°50'0 0.0
2017-Dec-17 04:27N 35°35' E 139°50'2 4.3
2017-Dec-17 03:57N 35°37' E 139°50'0 0.0
2017-Dec-16 07:13N 35°37' E 139°50'1 5.0
2017-Dec-16 07:01N 35°36' E 139°50'1 2.1
2017-Dec-16 06:30N 35°35' E 139°50'0 0.0
2017-Dec-16 06:01N 35°35' E 139°50'0 0.0
2017-Dec-16 05:31N 35°35' E 139°50'0 0.0
2017-Dec-16 05:00N 35°35' E 139°50'0 0.0
2017-Dec-16 04:31N 35°35' E 139°50'2 3.1
2017-Dec-16 03:59N 35°37' E 139°50'1 0.2
2017-Dec-16 00:45N 35°37' E 139°50'0 0.1
2017-Dec-16 00:21N 35°37' E 139°50'  
2017-Dec-13 05:19N 35°37' E 139°50'1 3.1
2017-Dec-13 04:59N 35°36' E 139°50'510.4
2017-Dec-13 04:30N 35°31' E 139°52'5 9.4
2017-Dec-13 04:01N 35°27' E 139°50'510.3
2017-Dec-13 03:30N 35°23' E 139°46'5 9.9
2017-Dec-13 03:00N 35°18' E 139°45'510.2
2017-Dec-13 02:30N 35°13' E 139°47'510.4
2017-Dec-13 01:59N 35°08' E 139°47'510.1
2017-Dec-13 01:30N 35°03' E 139°46'1610.2
2017-Dec-12 23:55N 34°50' E 139°36'  
2017-Dec-10 03:56N 34°53' E 139°40'4 9.0
2017-Dec-10 03:29N 34°57' E 139°41'4 8.8
2017-Dec-10 03:00N 35°01' E 139°42'4 8.2
2017-Dec-10 02:30N 35°05' E 139°43'4 8.1
2017-Dec-10 02:00N 35°08' E 139°45'4 8.9
2017-Dec-10 01:30N 35°13' E 139°46'4 8.9
2017-Dec-10 01:01N 35°17' E 139°45'5 9.6
2017-Dec-10 00:31N 35°21' E 139°42'5 9.4
2017-Dec-10 00:01N 35°26' E 139°43'5 9.6
2017-Dec-09 23:30N 35°30' E 139°47'5 9.4
2017-Dec-09 23:01N 35°34' E 139°50'4 7.2
2017-Dec-09 22:30N 35°37' E 139°50'0 0.0
2017-Dec-09 22:01N 35°37' E 139°50'0 0.0
2017-Dec-08 22:53N 35°37' E 139°50'  

Dump ship's entire track history